aviador You're here:

KLQK Decoded Metar

in
Report Time2018-05-20 23:15:00
UTC Time2018-05-20 23:27:45
Flight Rules vfr VFR
WindCalm
Visibility9999 m
Phenomena:N/A
Clouds:N/A
CeilingNone
Temp20°C
Dew Point20°C (100% RH)
QNH1020 hPa
Raw Report
METAR KLQK 202315Z AUTO 00000KT 10SM CLR 20/20 A3012 RMK AO2 T01980198=

Extra information for KLQK:More info

Social comments